sensor_id;sensor_type;location;lat;lon;timestamp;temperature;humidity
23188;DHT22;11762;59.878;17.686;2023-05-07T00:52:02;-0.50;99.90
23188;DHT22;11762;59.878;17.686;2023-05-07T00:54:29;-0.80;99.90
23188;DHT22;11762;59.878;17.686;2023-05-07T00:56:56;-1.00;99.90
23188;DHT22;11762;59.878;17.686;2023-05-07T00:59:23;-1.10;99.90
23188;DHT22;11762;59.878;17.686;2023-05-07T01:01:51;-1.30;99.90
23188;DHT22;11762;59.878;17.686;2023-05-07T01:04:18;-1.30;99.90
23188;DHT22;11762;59.878;17.686;2023-05-07T01:06:46;-1.30;99.90
23188;DHT22;11762;59.878;17.686;2023-05-07T01:09:14;-1.30;99.90
23188;DHT22;11762;59.878;17.686;2023-05-07T01:11:43;-1.40;99.90
23188;DHT22;11762;59.878;17.686;2023-05-07T01:14:11;-1.40;99.90
23188;DHT22;11762;59.878;17.686;2023-05-07T01:16:38;-1.40;99.90
23188;DHT22;11762;59.878;17.686;2023-05-07T01:19:07;-1.40;99.90
23188;DHT22;11762;59.878;17.686;2023-05-07T01:21:37;-1.40;99.90
23188;DHT22;11762;59.878;17.686;2023-05-07T01:24:07;-1.40;99.90
23188;DHT22;11762;59.878;17.686;2023-05-07T01:26:34;-1.40;99.90
23188;DHT22;11762;59.878;17.686;2023-05-07T01:29:01;-1.40;99.90
23188;DHT22;11762;59.878;17.686;2023-05-07T01:31:29;-1.40;99.90
23188;DHT22;11762;59.878;17.686;2023-05-07T01:33:57;-1.40;99.90
23188;DHT22;11762;59.878;17.686;2023-05-07T01:36:26;-1.40;99.90
23188;DHT22;11762;59.878;17.686;2023-05-07T01:38:54;-1.40;99.90
23188;DHT22;11762;59.878;17.686;2023-05-07T01:41:25;-1.40;99.90
23188;DHT22;11762;59.878;17.686;2023-05-07T01:43:54;-1.40;99.90
23188;DHT22;11762;59.878;17.686;2023-05-07T01:46:21;-1.30;99.90
23188;DHT22;11762;59.878;17.686;2023-05-07T01:48:49;-1.30;99.90
23188;DHT22;11762;59.878;17.686;2023-05-07T01:51:17;-1.30;99.90
23188;DHT22;11762;59.878;17.686;2023-05-07T01:53:45;-1.40;99.90
23188;DHT22;11762;59.878;17.686;2023-05-07T01:56:16;-1.40;99.90
23188;DHT22;11762;59.878;17.686;2023-05-07T01:58:45;-1.40;99.90
23188;DHT22;11762;59.878;17.686;2023-05-07T02:01:13;-1.50;99.90
23188;DHT22;11762;59.878;17.686;2023-05-07T02:03:40;-1.60;99.90
23188;DHT22;11762;59.878;17.686;2023-05-07T02:06:07;-1.70;99.90
23188;DHT22;11762;59.878;17.686;2023-05-07T02:08:34;-1.80;99.90
23188;DHT22;11762;59.878;17.686;2023-05-07T02:11:01;-1.90;99.90
23188;DHT22;11762;59.878;17.686;2023-05-07T02:13:32;-2.00;99.90
23188;DHT22;11762;59.878;17.686;2023-05-07T02:16:01;-2.10;99.90
23188;DHT22;11762;59.878;17.686;2023-05-07T02:18:28;-2.10;99.90
23188;DHT22;11762;59.878;17.686;2023-05-07T02:20:55;-2.20;99.90
23188;DHT22;11762;59.878;17.686;2023-05-07T02:23:22;-2.30;99.90
23188;DHT22;11762;59.878;17.686;2023-05-07T02:25:49;-2.30;99.90
23188;DHT22;11762;59.878;17.686;2023-05-07T02:28:16;-2.30;99.90
23188;DHT22;11762;59.878;17.686;2023-05-07T02:30:43;-2.30;99.90
23188;DHT22;11762;59.878;17.686;2023-05-07T02:33:12;-2.20;99.90
23188;DHT22;11762;59.878;17.686;2023-05-07T02:35:39;-2.20;99.90
23188;DHT22;11762;59.878;17.686;2023-05-07T02:38:06;-2.10;99.90
23188;DHT22;11762;59.878;17.686;2023-05-07T02:40:36;-2.10;99.90
23188;DHT22;11762;59.878;17.686;2023-05-07T02:43:05;-2.00;99.90
23188;DHT22;11762;59.878;17.686;2023-05-07T02:45:32;-2.00;99.90
23188;DHT22;11762;59.878;17.686;2023-05-07T02:47:59;-1.90;99.90
23188;DHT22;11762;59.878;17.686;2023-05-07T02:50:27;-1.90;99.90
23188;DHT22;11762;59.878;17.686;2023-05-07T02:52:55;-1.90;99.90
23188;DHT22;11762;59.878;17.686;2023-05-07T02:55:22;-1.80;99.90
23188;DHT22;11762;59.878;17.686;2023-05-07T02:57:49;-1.60;99.90
23188;DHT22;11762;59.878;17.686;2023-05-07T03:00:17;-1.30;99.90
23188;DHT22;11762;59.878;17.686;2023-05-07T03:02:45;-1.10;99.90
23188;DHT22;11762;59.878;17.686;2023-05-07T03:05:12;-1.10;99.90
23188;DHT22;11762;59.878;17.686;2023-05-07T03:07:41;-1.30;99.90
23188;DHT22;11762;59.878;17.686;2023-05-07T03:10:10;-1.40;99.90
23188;DHT22;11762;59.878;17.686;2023-05-07T03:12:38;-1.50;99.90
23188;DHT22;11762;59.878;17.686;2023-05-07T03:15:05;-1.60;99.90
23188;DHT22;11762;59.878;17.686;2023-05-07T03:17:33;-1.60;99.90
23188;DHT22;11762;59.878;17.686;2023-05-07T03:20:00;-1.60;99.90
23188;DHT22;11762;59.878;17.686;2023-05-07T03:22:27;-1.60;99.90
23188;DHT22;11762;59.878;17.686;2023-05-07T03:24:56;-1.60;99.90
23188;DHT22;11762;59.878;17.686;2023-05-07T03:27:23;-1.40;99.90
23188;DHT22;11762;59.878;17.686;2023-05-07T03:29:50;-1.20;99.90
23188;DHT22;11762;59.878;17.686;2023-05-07T03:32:17;-0.90;99.90
23188;DHT22;11762;59.878;17.686;2023-05-07T03:34:44;-0.50;99.90
23188;DHT22;11762;59.878;17.686;2023-05-07T03:37:11;0.10;99.90
23188;DHT22;11762;59.878;17.686;2023-05-07T03:39:38;0.30;99.90
23188;DHT22;11762;59.878;17.686;2023-05-07T03:42:07;0.40;99.90
23188;DHT22;11762;59.878;17.686;2023-05-07T03:44:34;0.30;99.90
23188;DHT22;11762;59.878;17.686;2023-05-07T03:47:01;0.30;99.90
23188;DHT22;11762;59.878;17.686;2023-05-07T03:49:29;0.20;99.90
23188;DHT22;11762;59.878;17.686;2023-05-07T03:51:56;0.00;99.90
23188;DHT22;11762;59.878;17.686;2023-05-07T03:54:23;-0.10;99.90
23188;DHT22;11762;59.878;17.686;2023-05-07T03:56:50;-0.20;99.90
23188;DHT22;11762;59.878;17.686;2023-05-07T03:59:18;-0.20;99.90
23188;DHT22;11762;59.878;17.686;2023-05-07T04:01:45;-0.20;99.90
23188;DHT22;11762;59.878;17.686;2023-05-07T04:04:12;-0.10;99.90
23188;DHT22;11762;59.878;17.686;2023-05-07T04:06:39;-0.10;99.90
23188;DHT22;11762;59.878;17.686;2023-05-07T04:09:07;0.10;99.90
23188;DHT22;11762;59.878;17.686;2023-05-07T04:11:35;0.20;99.90
23188;DHT22;11762;59.878;17.686;2023-05-07T04:14:02;0.30;99.90
23188;DHT22;11762;59.878;17.686;2023-05-07T04:16:30;0.50;99.90
23188;DHT22;11762;59.878;17.686;2023-05-07T04:18:57;0.70;99.90
23188;DHT22;11762;59.878;17.686;2023-05-07T04:21:24;0.80;99.90
23188;DHT22;11762;59.878;17.686;2023-05-07T04:23:52;0.90;99.90
23188;DHT22;11762;59.878;17.686;2023-05-07T04:26:19;1.10;99.90
23188;DHT22;11762;59.878;17.686;2023-05-07T04:28:46;1.30;99.90
23188;DHT22;11762;59.878;17.686;2023-05-07T04:31:13;1.50;99.90
23188;DHT22;11762;59.878;17.686;2023-05-07T04:33:42;1.80;99.90
23188;DHT22;11762;59.878;17.686;2023-05-07T04:36:09;1.90;99.90
23188;DHT22;11762;59.878;17.686;2023-05-07T04:38:36;2.10;99.90
23188;DHT22;11762;59.878;17.686;2023-05-07T04:41:05;2.30;99.90
23188;DHT22;11762;59.878;17.686;2023-05-07T04:43:32;2.40;99.90
23188;DHT22;11762;59.878;17.686;2023-05-07T04:46:00;2.70;99.90
23188;DHT22;11762;59.878;17.686;2023-05-07T04:48:27;3.00;99.90
23188;DHT22;11762;59.878;17.686;2023-05-07T04:50:55;3.20;99.90
23188;DHT22;11762;59.878;17.686;2023-05-07T04:53:22;3.50;99.90
23188;DHT22;11762;59.878;17.686;2023-05-07T04:55:55;3.70;99.90
23188;DHT22;11762;59.878;17.686;2023-05-07T04:58:22;4.20;99.90
23188;DHT22;11762;59.878;17.686;2023-05-07T05:00:49;4.60;99.90
23188;DHT22;11762;59.878;17.686;2023-05-07T05:03:17;4.90;99.90
23188;DHT22;11762;59.878;17.686;2023-05-07T05:05:44;5.10;99.90
23188;DHT22;11762;59.878;17.686;2023-05-07T05:08:13;5.50;99.90
23188;DHT22;11762;59.878;17.686;2023-05-07T05:10:40;6.20;99.90
23188;DHT22;11762;59.878;17.686;2023-05-07T05:13:09;6.50;99.90
23188;DHT22;11762;59.878;17.686;2023-05-07T05:15:38;6.90;99.90
23188;DHT22;11762;59.878;17.686;2023-05-07T05:18:05;7.20;99.90
23188;DHT22;11762;59.878;17.686;2023-05-07T05:20:32;7.70;99.90
23188;DHT22;11762;59.878;17.686;2023-05-07T05:22:59;7.80;99.90
23188;DHT22;11762;59.878;17.686;2023-05-07T05:25:27;7.70;99.90
23188;DHT22;11762;59.878;17.686;2023-05-07T05:27:55;7.70;99.90
23188;DHT22;11762;59.878;17.686;2023-05-07T05:30:22;7.70;99.90
23188;DHT22;11762;59.878;17.686;2023-05-07T05:32:49;8.10;99.90
23188;DHT22;11762;59.878;17.686;2023-05-07T05:35:19;8.40;99.90
23188;DHT22;11762;59.878;17.686;2023-05-07T05:37:46;8.80;99.90
23188;DHT22;11762;59.878;17.686;2023-05-07T05:40:14;9.30;99.90
23188;DHT22;11762;59.878;17.686;2023-05-07T05:42:42;9.80;99.90
23188;DHT22;11762;59.878;17.686;2023-05-07T05:45:09;10.20;99.90
23188;DHT22;11762;59.878;17.686;2023-05-07T05:47:37;10.50;99.90
23188;DHT22;11762;59.878;17.686;2023-05-07T05:50:06;10.50;99.90
23188;DHT22;11762;59.878;17.686;2023-05-07T05:52:33;10.70;99.90
23188;DHT22;11762;59.878;17.686;2023-05-07T05:55:00;11.10;99.90
23188;DHT22;11762;59.878;17.686;2023-05-07T05:57:27;11.00;99.90
23188;DHT22;11762;59.878;17.686;2023-05-07T05:59:55;11.50;99.90
23188;DHT22;11762;59.878;17.686;2023-05-07T06:02:22;11.90;99.90
23188;DHT22;11762;59.878;17.686;2023-05-07T06:04:50;11.20;99.90
23188;DHT22;11762;59.878;17.686;2023-05-07T06:07:20;11.30;99.90
23188;DHT22;11762;59.878;17.686;2023-05-07T06:09:47;11.00;99.90
23188;DHT22;11762;59.878;17.686;2023-05-07T06:12:14;11.80;99.90
23188;DHT22;11762;59.878;17.686;2023-05-07T06:14:42;11.80;99.90
23188;DHT22;11762;59.878;17.686;2023-05-07T06:17:11;11.80;99.90
23188;DHT22;11762;59.878;17.686;2023-05-07T06:19:38;11.50;99.90
23188;DHT22;11762;59.878;17.686;2023-05-07T06:22:05;11.60;99.90
23188;DHT22;11762;59.878;17.686;2023-05-07T06:24:32;11.50;99.90
23188;DHT22;11762;59.878;17.686;2023-05-07T06:27:00;11.70;99.90
23188;DHT22;11762;59.878;17.686;2023-05-07T06:29:27;12.20;99.90
23188;DHT22;11762;59.878;17.686;2023-05-07T06:31:55;12.20;99.90
23188;DHT22;11762;59.878;17.686;2023-05-07T06:34:24;12.10;99.90
23188;DHT22;11762;59.878;17.686;2023-05-07T06:36:51;12.10;99.90
23188;DHT22;11762;59.878;17.686;2023-05-07T06:39:18;11.80;99.90
23188;DHT22;11762;59.878;17.686;2023-05-07T06:41:45;12.20;99.90
23188;DHT22;11762;59.878;17.686;2023-05-07T06:44:12;12.50;99.90
23188;DHT22;11762;59.878;17.686;2023-05-07T06:46:43;12.50;99.90
23188;DHT22;11762;59.878;17.686;2023-05-07T06:49:10;12.30;99.90
23188;DHT22;11762;59.878;17.686;2023-05-07T06:51:39;12.40;99.90
23188;DHT22;11762;59.878;17.686;2023-05-07T06:54:06;12.70;99.90
23188;DHT22;11762;59.878;17.686;2023-05-07T06:56:33;13.00;99.90
23188;DHT22;11762;59.878;17.686;2023-05-07T06:59:01;13.00;99.90
23188;DHT22;11762;59.878;17.686;2023-05-07T07:01:28;12.60;99.90
23188;DHT22;11762;59.878;17.686;2023-05-07T07:03:55;12.60;99.90
23188;DHT22;11762;59.878;17.686;2023-05-07T07:06:22;13.00;99.90
23188;DHT22;11762;59.878;17.686;2023-05-07T07:08:51;13.30;99.90
23188;DHT22;11762;59.878;17.686;2023-05-07T07:11:18;13.20;99.90
23188;DHT22;11762;59.878;17.686;2023-05-07T07:13:46;13.10;99.90
23188;DHT22;11762;59.878;17.686;2023-05-07T07:16:13;12.30;99.90
23188;DHT22;11762;59.878;17.686;2023-05-07T07:18:40;11.70;99.90
23188;DHT22;11762;59.878;17.686;2023-05-07T07:21:07;10.60;99.90
23188;DHT22;11762;59.878;17.686;2023-05-07T07:23:34;9.60;99.90
23188;DHT22;11762;59.878;17.686;2023-05-07T07:26:02;9.30;99.90
23188;DHT22;11762;59.878;17.686;2023-05-07T07:28:29;9.00;99.90
23188;DHT22;11762;59.878;17.686;2023-05-07T07:30:56;9.00;99.90
23188;DHT22;11762;59.878;17.686;2023-05-07T07:33:23;9.40;99.90
23188;DHT22;11762;59.878;17.686;2023-05-07T07:35:51;9.30;99.90
23188;DHT22;11762;59.878;17.686;2023-05-07T07:38:17;9.20;99.90
23188;DHT22;11762;59.878;17.686;2023-05-07T07:40:54;9.00;99.90
23188;DHT22;11762;59.878;17.686;2023-05-07T07:43:23;9.10;99.90
23188;DHT22;11762;59.878;17.686;2023-05-07T07:45:50;9.30;99.90
23188;DHT22;11762;59.878;17.686;2023-05-07T07:48:17;9.50;99.90
23188;DHT22;11762;59.878;17.686;2023-05-07T07:50:44;9.40;99.90
23188;DHT22;11762;59.878;17.686;2023-05-07T07:53:11;9.60;99.90
23188;DHT22;11762;59.878;17.686;2023-05-07T07:55:38;9.40;99.90
23188;DHT22;11762;59.878;17.686;2023-05-07T07:58:06;9.40;99.90
23188;DHT22;11762;59.878;17.686;2023-05-07T08:00:34;9.50;99.90
23188;DHT22;11762;59.878;17.686;2023-05-07T08:03:01;9.60;99.90
23188;DHT22;11762;59.878;17.686;2023-05-07T08:05:29;9.60;99.90
23188;DHT22;11762;59.878;17.686;2023-05-07T08:07:56;9.40;99.90
23188;DHT22;11762;59.878;17.686;2023-05-07T08:10:24;9.40;99.90
23188;DHT22;11762;59.878;17.686;2023-05-07T08:12:51;9.20;99.90
23188;DHT22;11762;59.878;17.686;2023-05-07T08:15:18;9.40;99.90
23188;DHT22;11762;59.878;17.686;2023-05-07T08:17:46;9.10;99.90
23188;DHT22;11762;59.878;17.686;2023-05-07T08:20:13;9.20;99.90
23188;DHT22;11762;59.878;17.686;2023-05-07T08:22:40;9.40;99.90
23188;DHT22;11762;59.878;17.686;2023-05-07T08:25:08;9.50;99.90
23188;DHT22;11762;59.878;17.686;2023-05-07T08:27:35;9.60;99.90
23188;DHT22;11762;59.878;17.686;2023-05-07T08:30:03;9.70;99.90
23188;DHT22;11762;59.878;17.686;2023-05-07T08:32:31;9.70;99.90
23188;DHT22;11762;59.878;17.686;2023-05-07T08:35:00;9.60;99.90
23188;DHT22;11762;59.878;17.686;2023-05-07T08:37:27;9.50;99.90
23188;DHT22;11762;59.878;17.686;2023-05-07T08:39:54;9.60;99.90
23188;DHT22;11762;59.878;17.686;2023-05-07T08:42:23;9.70;99.90
23188;DHT22;11762;59.878;17.686;2023-05-07T08:44:51;9.90;99.90
23188;DHT22;11762;59.878;17.686;2023-05-07T08:47:22;10.00;99.90
23188;DHT22;11762;59.878;17.686;2023-05-07T08:49:53;10.10;99.90
23188;DHT22;11762;59.878;17.686;2023-05-07T08:52:22;9.80;99.90
23188;DHT22;11762;59.878;17.686;2023-05-07T08:54:49;9.90;99.90
23188;DHT22;11762;59.878;17.686;2023-05-07T08:57:16;9.90;99.90
23188;DHT22;11762;59.878;17.686;2023-05-07T08:59:45;10.10;99.90
23188;DHT22;11762;59.878;17.686;2023-05-07T09:02:12;10.10;99.90
23188;DHT22;11762;59.878;17.686;2023-05-07T09:04:40;10.20;99.90
23188;DHT22;11762;59.878;17.686;2023-05-07T09:07:07;10.30;99.90
23188;DHT22;11762;59.878;17.686;2023-05-07T09:09:35;10.10;99.90
23188;DHT22;11762;59.878;17.686;2023-05-07T09:12:03;10.10;99.90
23188;DHT22;11762;59.878;17.686;2023-05-07T09:14:30;10.30;99.90
23188;DHT22;11762;59.878;17.686;2023-05-07T09:16:57;10.30;99.90
23188;DHT22;11762;59.878;17.686;2023-05-07T09:19:24;10.20;99.90
23188;DHT22;11762;59.878;17.686;2023-05-07T09:21:58;10.30;99.90
23188;DHT22;11762;59.878;17.686;2023-05-07T09:24:25;10.30;99.90
23188;DHT22;11762;59.878;17.686;2023-05-07T09:26:57;10.30;99.90
23188;DHT22;11762;59.878;17.686;2023-05-07T09:29:25;10.20;99.90
23188;DHT22;11762;59.878;17.686;2023-05-07T09:31:54;10.10;99.90
23188;DHT22;11762;59.878;17.686;2023-05-07T09:34:21;10.10;99.90
23188;DHT22;11762;59.878;17.686;2023-05-07T09:36:48;10.30;99.90
23188;DHT22;11762;59.878;17.686;2023-05-07T09:39:16;10.30;99.90
23188;DHT22;11762;59.878;17.686;2023-05-07T09:41:44;10.30;99.90
23188;DHT22;11762;59.878;17.686;2023-05-07T09:44:12;10.30;99.90
23188;DHT22;11762;59.878;17.686;2023-05-07T09:46:43;10.30;99.90
23188;DHT22;11762;59.878;17.686;2023-05-07T09:49:13;10.30;99.90
23188;DHT22;11762;59.878;17.686;2023-05-07T09:51:47;10.40;99.90
23188;DHT22;11762;59.878;17.686;2023-05-07T09:54:15;10.30;99.90
23188;DHT22;11762;59.878;17.686;2023-05-07T09:56:43;10.20;99.90
23188;DHT22;11762;59.878;17.686;2023-05-07T09:59:14;10.30;99.90
23188;DHT22;11762;59.878;17.686;2023-05-07T10:01:41;10.40;99.90
23188;DHT22;11762;59.878;17.686;2023-05-07T10:04:09;10.50;99.90
23188;DHT22;11762;59.878;17.686;2023-05-07T10:06:37;10.60;99.90
23188;DHT22;11762;59.878;17.686;2023-05-07T10:09:05;10.70;99.90
23188;DHT22;11762;59.878;17.686;2023-05-07T10:11:32;10.80;99.90
23188;DHT22;11762;59.878;17.686;2023-05-07T10:14:00;10.70;99.90
23188;DHT22;11762;59.878;17.686;2023-05-07T10:16:31;10.80;99.90
23188;DHT22;11762;59.878;17.686;2023-05-07T10:19:02;10.80;99.90
23188;DHT22;11762;59.878;17.686;2023-05-07T10:21:29;11.00;99.90
23188;DHT22;11762;59.878;17.686;2023-05-07T10:23:59;11.20;99.90
23188;DHT22;11762;59.878;17.686;2023-05-07T10:26:27;11.20;99.90
23188;DHT22;11762;59.878;17.686;2023-05-07T10:29:01;11.30;99.90
23188;DHT22;11762;59.878;17.686;2023-05-07T10:34:29;11.10;99.90
23188;DHT22;11762;59.878;17.686;2023-05-07T10:36:59;11.20;99.90
23188;DHT22;11762;59.878;17.686;2023-05-07T10:39:27;11.10;99.90
23188;DHT22;11762;59.878;17.686;2023-05-07T10:41:54;10.70;99.90
23188;DHT22;11762;59.878;17.686;2023-05-07T10:44:27;10.70;99.90
23188;DHT22;11762;59.878;17.686;2023-05-07T10:47:09;10.70;99.90
23188;DHT22;11762;59.878;17.686;2023-05-07T10:49:50;10.80;99.90
23188;DHT22;11762;59.878;17.686;2023-05-07T10:52:37;11.00;99.90
23188;DHT22;11762;59.878;17.686;2023-05-07T10:55:19;11.20;99.90
23188;DHT22;11762;59.878;17.686;2023-05-07T10:57:47;11.10;99.90
23188;DHT22;11762;59.878;17.686;2023-05-07T11:00:43;11.10;99.90
23188;DHT22;11762;59.878;17.686;2023-05-07T11:03:11;10.90;99.90
23188;DHT22;11762;59.878;17.686;2023-05-07T11:05:40;11.00;99.90
23188;DHT22;11762;59.878;17.686;2023-05-07T11:08:08;11.00;99.90
23188;DHT22;11762;59.878;17.686;2023-05-07T11:10:49;11.30;99.90
23188;DHT22;11762;59.878;17.686;2023-05-07T11:13:17;11.30;99.90
23188;DHT22;11762;59.878;17.686;2023-05-07T11:15:45;11.00;99.90
23188;DHT22;11762;59.878;17.686;2023-05-07T11:18:15;11.10;99.90
23188;DHT22;11762;59.878;17.686;2023-05-07T11:20:54;11.30;99.90
23188;DHT22;11762;59.878;17.686;2023-05-07T11:26:44;11.50;99.90
23188;DHT22;11762;59.878;17.686;2023-05-07T11:29:12;11.50;99.90
23188;DHT22;11762;59.878;17.686;2023-05-07T11:31:39;11.50;99.90
23188;DHT22;11762;59.878;17.686;2023-05-07T11:34:08;11.50;99.90
23188;DHT22;11762;59.878;17.686;2023-05-07T11:36:41;11.50;99.90
23188;DHT22;11762;59.878;17.686;2023-05-07T11:39:24;11.70;99.90
23188;DHT22;11762;59.878;17.686;2023-05-07T11:41:51;11.70;99.90
23188;DHT22;11762;59.878;17.686;2023-05-07T11:44:18;12.00;99.90
23188;DHT22;11762;59.878;17.686;2023-05-07T11:46:46;12.10;99.90
23188;DHT22;11762;59.878;17.686;2023-05-07T11:49:14;12.00;99.90
23188;DHT22;11762;59.878;17.686;2023-05-07T11:51:42;11.60;99.90
23188;DHT22;11762;59.878;17.686;2023-05-07T11:54:09;11.60;99.90
23188;DHT22;11762;59.878;17.686;2023-05-07T11:56:37;12.00;99.90
23188;DHT22;11762;59.878;17.686;2023-05-07T11:59:04;12.30;99.90
23188;DHT22;11762;59.878;17.686;2023-05-07T12:01:32;12.20;99.90
23188;DHT22;11762;59.878;17.686;2023-05-07T12:04:03;12.10;99.90
23188;DHT22;11762;59.878;17.686;2023-05-07T12:06:36;12.00;99.90
23188;DHT22;11762;59.878;17.686;2023-05-07T12:09:04;11.80;99.90
23188;DHT22;11762;59.878;17.686;2023-05-07T12:11:33;11.50;99.90
23188;DHT22;11762;59.878;17.686;2023-05-07T12:14:00;11.50;99.90
23188;DHT22;11762;59.878;17.686;2023-05-07T12:16:28;11.60;99.90
23188;DHT22;11762;59.878;17.686;2023-05-07T12:18:55;12.00;99.90
23188;DHT22;11762;59.878;17.686;2023-05-07T12:21:24;12.00;99.90
23188;DHT22;11762;59.878;17.686;2023-05-07T12:23:53;12.20;99.90
23188;DHT22;11762;59.878;17.686;2023-05-07T12:26:20;12.40;99.90
23188;DHT22;11762;59.878;17.686;2023-05-07T12:28:47;12.70;99.90
23188;DHT22;11762;59.878;17.686;2023-05-07T12:31:15;12.70;99.90
23188;DHT22;11762;59.878;17.686;2023-05-07T12:33:42;12.40;99.90
23188;DHT22;11762;59.878;17.686;2023-05-07T12:36:12;12.50;99.90
23188;DHT22;11762;59.878;17.686;2023-05-07T12:38:40;12.70;99.90
23188;DHT22;11762;59.878;17.686;2023-05-07T12:41:10;12.90;99.90
23188;DHT22;11762;59.878;17.686;2023-05-07T12:43:38;12.80;99.90
23188;DHT22;11762;59.878;17.686;2023-05-07T12:46:06;12.60;99.90
23188;DHT22;11762;59.878;17.686;2023-05-07T12:48:35;12.50;99.90
23188;DHT22;11762;59.878;17.686;2023-05-07T12:51:02;12.40;99.90
23188;DHT22;11762;59.878;17.686;2023-05-07T12:53:30;12.50;99.90
23188;DHT22;11762;59.878;17.686;2023-05-07T12:55:58;12.60;99.90
23188;DHT22;11762;59.878;17.686;2023-05-07T12:58:28;12.70;99.90
23188;DHT22;11762;59.878;17.686;2023-05-07T13:00:57;12.90;99.90
23188;DHT22;11762;59.878;17.686;2023-05-07T13:03:27;13.00;99.90
23188;DHT22;11762;59.878;17.686;2023-05-07T13:05:55;12.40;99.90
23188;DHT22;11762;59.878;17.686;2023-05-07T13:08:27;12.50;99.90
23188;DHT22;11762;59.878;17.686;2023-05-07T13:10:54;12.60;99.90
23188;DHT22;11762;59.878;17.686;2023-05-07T13:13:21;12.40;99.90
23188;DHT22;11762;59.878;17.686;2023-05-07T13:15:50;12.50;99.90
23188;DHT22;11762;59.878;17.686;2023-05-07T13:18:17;12.40;99.90
23188;DHT22;11762;59.878;17.686;2023-05-07T13:20:44;12.60;99.90
23188;DHT22;11762;59.878;17.686;2023-05-07T13:23:11;12.70;99.90
23188;DHT22;11762;59.878;17.686;2023-05-07T13:25:38;12.80;99.90
23188;DHT22;11762;59.878;17.686;2023-05-07T13:28:05;12.60;99.90
23188;DHT22;11762;59.878;17.686;2023-05-07T13:30:32;12.70;99.90
23188;DHT22;11762;59.878;17.686;2023-05-07T13:33:01;12.90;99.90
23188;DHT22;11762;59.878;17.686;2023-05-07T13:35:28;12.50;99.90
23188;DHT22;11762;59.878;17.686;2023-05-07T13:37:56;12.50;99.90
23188;DHT22;11762;59.878;17.686;2023-05-07T13:40:23;12.70;99.90
23188;DHT22;11762;59.878;17.686;2023-05-07T13:42:50;12.80;99.90
23188;DHT22;11762;59.878;17.686;2023-05-07T13:45:18;12.80;99.90
23188;DHT22;11762;59.878;17.686;2023-05-07T13:47:45;12.70;99.90
23188;DHT22;11762;59.878;17.686;2023-05-07T13:50:16;12.80;99.90
23188;DHT22;11762;59.878;17.686;2023-05-07T13:52:44;12.80;99.90
23188;DHT22;11762;59.878;17.686;2023-05-07T13:55:16;12.90;99.90
23188;DHT22;11762;59.878;17.686;2023-05-07T13:57:43;13.10;99.90
23188;DHT22;11762;59.878;17.686;2023-05-07T14:00:11;13.20;99.90
23188;DHT22;11762;59.878;17.686;2023-05-07T14:02:39;12.90;99.90
23188;DHT22;11762;59.878;17.686;2023-05-07T14:05:06;12.70;99.90
23188;DHT22;11762;59.878;17.686;2023-05-07T14:07:36;12.40;99.90
23188;DHT22;11762;59.878;17.686;2023-05-07T14:10:03;12.70;99.90
23188;DHT22;11762;59.878;17.686;2023-05-07T14:12:31;12.60;99.90
23188;DHT22;11762;59.878;17.686;2023-05-07T14:14:59;12.30;99.90
23188;DHT22;11762;59.878;17.686;2023-05-07T14:17:26;12.50;99.90
23188;DHT22;11762;59.878;17.686;2023-05-07T14:19:53;12.70;99.90
23188;DHT22;11762;59.878;17.686;2023-05-07T14:22:21;12.80;99.90
23188;DHT22;11762;59.878;17.686;2023-05-07T14:24:50;13.00;99.90
23188;DHT22;11762;59.878;17.686;2023-05-07T14:27:16;13.00;99.90
23188;DHT22;11762;59.878;17.686;2023-05-07T14:29:44;13.00;99.90
23188;DHT22;11762;59.878;17.686;2023-05-07T14:32:11;12.70;99.90
23188;DHT22;11762;59.878;17.686;2023-05-07T14:34:38;12.90;99.90
23188;DHT22;11762;59.878;17.686;2023-05-07T14:37:05;13.10;99.90
23188;DHT22;11762;59.878;17.686;2023-05-07T14:39:32;13.20;99.90
23188;DHT22;11762;59.878;17.686;2023-05-07T14:42:01;13.20;99.90
23188;DHT22;11762;59.878;17.686;2023-05-07T14:44:28;13.20;99.90
23188;DHT22;11762;59.878;17.686;2023-05-07T14:46:55;13.20;99.90
23188;DHT22;11762;59.878;17.686;2023-05-07T14:49:22;13.20;99.90
23188;DHT22;11762;59.878;17.686;2023-05-07T14:51:49;13.50;99.90
23188;DHT22;11762;59.878;17.686;2023-05-07T14:54:16;13.40;99.90
23188;DHT22;11762;59.878;17.686;2023-05-07T14:56:43;13.20;99.90
23188;DHT22;11762;59.878;17.686;2023-05-07T14:59:12;13.20;99.90
23188;DHT22;11762;59.878;17.686;2023-05-07T15:01:39;13.10;99.90
23188;DHT22;11762;59.878;17.686;2023-05-07T15:04:10;13.20;99.90
23188;DHT22;11762;59.878;17.686;2023-05-07T15:06:38;13.10;99.30
23188;DHT22;11762;59.878;17.686;2023-05-07T15:09:05;13.10;99.90
23188;DHT22;11762;59.878;17.686;2023-05-07T15:11:33;12.80;99.40
23188;DHT22;11762;59.878;17.686;2023-05-07T15:14:00;12.60;99.90
23188;DHT22;11762;59.878;17.686;2023-05-07T15:16:28;12.60;99.50
23188;DHT22;11762;59.878;17.686;2023-05-07T15:18:55;12.60;99.90
23188;DHT22;11762;59.878;17.686;2023-05-07T15:21:22;12.80;99.90
23188;DHT22;11762;59.878;17.686;2023-05-07T15:23:49;12.70;99.80
23188;DHT22;11762;59.878;17.686;2023-05-07T15:26:16;12.90;99.90
23188;DHT22;11762;59.878;17.686;2023-05-07T15:28:43;13.10;99.90
23188;DHT22;11762;59.878;17.686;2023-05-07T15:31:11;13.20;99.90
23188;DHT22;11762;59.878;17.686;2023-05-07T15:33:39;13.30;99.90
23188;DHT22;11762;59.878;17.686;2023-05-07T15:36:06;13.20;99.50
23188;DHT22;11762;59.878;17.686;2023-05-07T15:38:34;13.10;99.50
23188;DHT22;11762;59.878;17.686;2023-05-07T15:41:01;13.10;99.50
23188;DHT22;11762;59.878;17.686;2023-05-07T15:43:29;13.20;98.80
23188;DHT22;11762;59.878;17.686;2023-05-07T15:45:56;13.10;99.50
23188;DHT22;11762;59.878;17.686;2023-05-07T15:48:23;13.10;99.40
23188;DHT22;11762;59.878;17.686;2023-05-07T15:50:51;13.00;99.60
23188;DHT22;11762;59.878;17.686;2023-05-07T15:53:18;13.20;99.90
23188;DHT22;11762;59.878;17.686;2023-05-07T15:55:45;13.20;99.80
23188;DHT22;11762;59.878;17.686;2023-05-07T15:58:12;13.40;99.90
23188;DHT22;11762;59.878;17.686;2023-05-07T16:00:39;13.50;99.30
23188;DHT22;11762;59.878;17.686;2023-05-07T16:03:06;13.40;99.50
23188;DHT22;11762;59.878;17.686;2023-05-07T16:05:34;13.50;99.90
23188;DHT22;11762;59.878;17.686;2023-05-07T16:08:03;13.60;99.00
23188;DHT22;11762;59.878;17.686;2023-05-07T16:10:30;13.50;99.70
23188;DHT22;11762;59.878;17.686;2023-05-07T16:12:57;13.40;99.60
23188;DHT22;11762;59.878;17.686;2023-05-07T16:15:24;13.30;99.20
23188;DHT22;11762;59.878;17.686;2023-05-07T16:17:51;13.10;99.20
23188;DHT22;11762;59.878;17.686;2023-05-07T16:20:23;13.00;99.50
23188;DHT22;11762;59.878;17.686;2023-05-07T16:22:51;13.20;99.90